sensor_id;sensor_type;location;lat;lon;timestamp;P1;durP1;ratioP1;P2;durP2;ratioP2
35578;SDS011;21687;48.900;9.188;2023-12-20T00:01:01;7.10;;;4.83;;
35578;SDS011;21687;48.900;9.188;2023-12-20T00:03:28;10.13;;;7.13;;
35578;SDS011;21687;48.900;9.188;2023-12-20T00:05:54;6.80;;;5.23;;
35578;SDS011;21687;48.900;9.188;2023-12-20T00:08:21;6.87;;;4.83;;
35578;SDS011;21687;48.900;9.188;2023-12-20T00:10:47;6.97;;;4.80;;
35578;SDS011;21687;48.900;9.188;2023-12-20T00:13:14;6.43;;;4.70;;
35578;SDS011;21687;48.900;9.188;2023-12-20T00:15:40;11.00;;;7.00;;
35578;SDS011;21687;48.900;9.188;2023-12-20T00:18:06;10.00;;;6.73;;
35578;SDS011;21687;48.900;9.188;2023-12-20T00:20:32;7.50;;;5.93;;
35578;SDS011;21687;48.900;9.188;2023-12-20T00:22:59;7.07;;;5.43;;
35578;SDS011;21687;48.900;9.188;2023-12-20T00:25:25;9.27;;;6.40;;
35578;SDS011;21687;48.900;9.188;2023-12-20T00:27:52;14.10;;;10.30;;
35578;SDS011;21687;48.900;9.188;2023-12-20T00:30:18;10.80;;;7.97;;
35578;SDS011;21687;48.900;9.188;2023-12-20T00:32:44;10.00;;;7.20;;
35578;SDS011;21687;48.900;9.188;2023-12-20T00:35:14;10.70;;;7.97;;
35578;SDS011;21687;48.900;9.188;2023-12-20T00:37:44;11.80;;;7.40;;
35578;SDS011;21687;48.900;9.188;2023-12-20T00:40:10;10.13;;;8.00;;
35578;SDS011;21687;48.900;9.188;2023-12-20T00:42:37;7.60;;;5.80;;
35578;SDS011;21687;48.900;9.188;2023-12-20T00:45:03;8.60;;;7.00;;
35578;SDS011;21687;48.900;9.188;2023-12-20T00:47:30;9.33;;;7.17;;
35578;SDS011;21687;48.900;9.188;2023-12-20T00:49:57;10.60;;;8.03;;
35578;SDS011;21687;48.900;9.188;2023-12-20T00:52:24;11.90;;;7.37;;
35578;SDS011;21687;48.900;9.188;2023-12-20T00:54:52;8.00;;;6.27;;
35578;SDS011;21687;48.900;9.188;2023-12-20T00:57:18;7.57;;;6.57;;
35578;SDS011;21687;48.900;9.188;2023-12-20T00:59:44;9.87;;;6.97;;
35578;SDS011;21687;48.900;9.188;2023-12-20T01:02:11;8.13;;;6.53;;
35578;SDS011;21687;48.900;9.188;2023-12-20T01:04:37;7.47;;;6.23;;
35578;SDS011;21687;48.900;9.188;2023-12-20T01:07:03;7.27;;;6.30;;
35578;SDS011;21687;48.900;9.188;2023-12-20T01:09:29;7.13;;;6.37;;
35578;SDS011;21687;48.900;9.188;2023-12-20T01:11:56;8.87;;;6.90;;
35578;SDS011;21687;48.900;9.188;2023-12-20T01:14:22;12.10;;;7.20;;
35578;SDS011;21687;48.900;9.188;2023-12-20T01:16:48;8.47;;;6.77;;
35578;SDS011;21687;48.900;9.188;2023-12-20T01:19:14;10.00;;;8.07;;
35578;SDS011;21687;48.900;9.188;2023-12-20T01:21:41;10.83;;;7.30;;
35578;SDS011;21687;48.900;9.188;2023-12-20T01:24:07;10.70;;;7.77;;
35578;SDS011;21687;48.900;9.188;2023-12-20T01:26:34;10.70;;;7.70;;
35578;SDS011;21687;48.900;9.188;2023-12-20T01:29:00;11.20;;;7.77;;
35578;SDS011;21687;48.900;9.188;2023-12-20T01:31:27;10.87;;;8.00;;
35578;SDS011;21687;48.900;9.188;2023-12-20T01:33:53;11.33;;;7.80;;
35578;SDS011;21687;48.900;9.188;2023-12-20T01:36:19;11.53;;;8.43;;
35578;SDS011;21687;48.900;9.188;2023-12-20T01:38:45;10.83;;;7.87;;
35578;SDS011;21687;48.900;9.188;2023-12-20T01:41:11;9.33;;;7.60;;
35578;SDS011;21687;48.900;9.188;2023-12-20T01:43:38;11.83;;;8.60;;
35578;SDS011;21687;48.900;9.188;2023-12-20T01:46:04;12.20;;;8.73;;
35578;SDS011;21687;48.900;9.188;2023-12-20T01:48:30;13.13;;;9.70;;
35578;SDS011;21687;48.900;9.188;2023-12-20T01:50:58;12.20;;;7.87;;
35578;SDS011;21687;48.900;9.188;2023-12-20T01:53:25;11.10;;;8.47;;
35578;SDS011;21687;48.900;9.188;2023-12-20T01:55:53;10.57;;;7.70;;
35578;SDS011;21687;48.900;9.188;2023-12-20T01:58:21;9.30;;;6.87;;
35578;SDS011;21687;48.900;9.188;2023-12-20T02:00:48;10.57;;;7.40;;
35578;SDS011;21687;48.900;9.188;2023-12-20T02:03:15;9.00;;;6.77;;
35578;SDS011;21687;48.900;9.188;2023-12-20T02:05:43;9.30;;;6.63;;
35578;SDS011;21687;48.900;9.188;2023-12-20T02:08:10;8.60;;;6.77;;
35578;SDS011;21687;48.900;9.188;2023-12-20T02:10:37;10.43;;;6.90;;
35578;SDS011;21687;48.900;9.188;2023-12-20T02:13:03;9.50;;;6.83;;
35578;SDS011;21687;48.900;9.188;2023-12-20T02:15:30;6.90;;;5.73;;
35578;SDS011;21687;48.900;9.188;2023-12-20T02:17:56;5.63;;;5.00;;
35578;SDS011;21687;48.900;9.188;2023-12-20T02:20:22;6.87;;;4.80;;
35578;SDS011;21687;48.900;9.188;2023-12-20T02:22:49;5.87;;;5.27;;
35578;SDS011;21687;48.900;9.188;2023-12-20T02:25:15;4.53;;;4.00;;
35578;SDS011;21687;48.900;9.188;2023-12-20T02:27:41;5.77;;;3.87;;
35578;SDS011;21687;48.900;9.188;2023-12-20T02:30:09;4.00;;;3.60;;
35578;SDS011;21687;48.900;9.188;2023-12-20T02:32:37;4.00;;;3.20;;
35578;SDS011;21687;48.900;9.188;2023-12-20T02:35:03;3.73;;;3.43;;
35578;SDS011;21687;48.900;9.188;2023-12-20T02:37:30;3.30;;;3.00;;
35578;SDS011;21687;48.900;9.188;2023-12-20T02:39:58;3.20;;;2.90;;
35578;SDS011;21687;48.900;9.188;2023-12-20T02:42:24;2.50;;;2.30;;
35578;SDS011;21687;48.900;9.188;2023-12-20T02:47:52;2.17;;;2.00;;
35578;SDS011;21687;48.900;9.188;2023-12-20T02:50:18;2.07;;;1.77;;
35578;SDS011;21687;48.900;9.188;2023-12-20T02:52:45;1.90;;;1.80;;
35578;SDS011;21687;48.900;9.188;2023-12-20T02:55:11;2.23;;;1.63;;
35578;SDS011;21687;48.900;9.188;2023-12-20T02:57:37;1.30;;;1.30;;
35578;SDS011;21687;48.900;9.188;2023-12-20T03:00:07;1.40;;;1.30;;
35578;SDS011;21687;48.900;9.188;2023-12-20T03:02:35;1.50;;;1.40;;
35578;SDS011;21687;48.900;9.188;2023-12-20T03:05:01;1.20;;;1.20;;
35578;SDS011;21687;48.900;9.188;2023-12-20T03:07:28;1.10;;;1.10;;
35578;SDS011;21687;48.900;9.188;2023-12-20T03:09:54;1.80;;;1.30;;
35578;SDS011;21687;48.900;9.188;2023-12-20T03:12:20;4.13;;;1.13;;
35578;SDS011;21687;48.900;9.188;2023-12-20T03:14:47;1.20;;;1.07;;
35578;SDS011;21687;48.900;9.188;2023-12-20T03:17:15;1.57;;;1.47;;
35578;SDS011;21687;48.900;9.188;2023-12-20T03:19:41;1.20;;;1.20;;
35578;SDS011;21687;48.900;9.188;2023-12-20T03:22:08;2.10;;;1.20;;
35578;SDS011;21687;48.900;9.188;2023-12-20T03:24:34;1.10;;;1.10;;
35578;SDS011;21687;48.900;9.188;2023-12-20T03:27:00;1.27;;;1.27;;
35578;SDS011;21687;48.900;9.188;2023-12-20T03:29:27;1.30;;;1.20;;
35578;SDS011;21687;48.900;9.188;2023-12-20T03:31:53;1.20;;;1.10;;
35578;SDS011;21687;48.900;9.188;2023-12-20T03:34:19;1.43;;;1.20;;
35578;SDS011;21687;48.900;9.188;2023-12-20T03:36:46;1.20;;;1.20;;
35578;SDS011;21687;48.900;9.188;2023-12-20T03:39:13;1.23;;;1.13;;
35578;SDS011;21687;48.900;9.188;2023-12-20T03:41:39;2.40;;;1.40;;
35578;SDS011;21687;48.900;9.188;2023-12-20T03:44:05;1.67;;;1.57;;
35578;SDS011;21687;48.900;9.188;2023-12-20T03:46:32;1.10;;;1.10;;
35578;SDS011;21687;48.900;9.188;2023-12-20T03:48:58;1.33;;;1.23;;
35578;SDS011;21687;48.900;9.188;2023-12-20T03:51:24;1.20;;;1.20;;
35578;SDS011;21687;48.900;9.188;2023-12-20T03:53:50;1.40;;;1.30;;
35578;SDS011;21687;48.900;9.188;2023-12-20T03:56:17;1.10;;;1.10;;
35578;SDS011;21687;48.900;9.188;2023-12-20T03:58:43;1.30;;;1.30;;
35578;SDS011;21687;48.900;9.188;2023-12-20T04:01:09;1.20;;;1.20;;
35578;SDS011;21687;48.900;9.188;2023-12-20T04:03:38;1.47;;;1.30;;
35578;SDS011;21687;48.900;9.188;2023-12-20T04:06:05;2.77;;;1.30;;
35578;SDS011;21687;48.900;9.188;2023-12-20T04:08:31;1.30;;;1.20;;
35578;SDS011;21687;48.900;9.188;2023-12-20T04:10:57;1.40;;;1.30;;
35578;SDS011;21687;48.900;9.188;2023-12-20T04:13:24;1.30;;;1.30;;
35578;SDS011;21687;48.900;9.188;2023-12-20T04:15:50;1.73;;;1.40;;
35578;SDS011;21687;48.900;9.188;2023-12-20T04:18:17;1.63;;;1.10;;
35578;SDS011;21687;48.900;9.188;2023-12-20T04:20:43;1.20;;;1.20;;
35578;SDS011;21687;48.900;9.188;2023-12-20T04:23:10;1.30;;;1.20;;
35578;SDS011;21687;48.900;9.188;2023-12-20T04:25:36;1.33;;;1.23;;
35578;SDS011;21687;48.900;9.188;2023-12-20T04:28:02;1.13;;;1.13;;
35578;SDS011;21687;48.900;9.188;2023-12-20T04:30:29;1.17;;;1.17;;
35578;SDS011;21687;48.900;9.188;2023-12-20T04:32:55;1.03;;;1.03;;
35578;SDS011;21687;48.900;9.188;2023-12-20T04:35:22;1.20;;;1.20;;
35578;SDS011;21687;48.900;9.188;2023-12-20T04:37:48;1.40;;;1.30;;
35578;SDS011;21687;48.900;9.188;2023-12-20T04:40:14;1.57;;;1.37;;
35578;SDS011;21687;48.900;9.188;2023-12-20T04:42:41;1.13;;;1.13;;
35578;SDS011;21687;48.900;9.188;2023-12-20T04:45:07;1.10;;;1.10;;
35578;SDS011;21687;48.900;9.188;2023-12-20T04:47:34;1.40;;;1.30;;
35578;SDS011;21687;48.900;9.188;2023-12-20T04:50:00;2.83;;;1.63;;
35578;SDS011;21687;48.900;9.188;2023-12-20T04:52:27;1.47;;;1.33;;
35578;SDS011;21687;48.900;9.188;2023-12-20T04:54:53;3.33;;;1.50;;
35578;SDS011;21687;48.900;9.188;2023-12-20T04:57:20;1.30;;;1.20;;
35578;SDS011;21687;48.900;9.188;2023-12-20T04:59:47;1.50;;;1.40;;
35578;SDS011;21687;48.900;9.188;2023-12-20T05:02:13;1.50;;;1.40;;
35578;SDS011;21687;48.900;9.188;2023-12-20T05:04:39;1.73;;;1.63;;
35578;SDS011;21687;48.900;9.188;2023-12-20T05:07:06;2.00;;;1.40;;
35578;SDS011;21687;48.900;9.188;2023-12-20T05:09:32;1.50;;;1.40;;
35578;SDS011;21687;48.900;9.188;2023-12-20T05:11:59;1.60;;;1.50;;
35578;SDS011;21687;48.900;9.188;2023-12-20T05:14:26;2.40;;;1.50;;
35578;SDS011;21687;48.900;9.188;2023-12-20T05:16:52;2.30;;;1.50;;
35578;SDS011;21687;48.900;9.188;2023-12-20T05:19:18;1.70;;;1.60;;
35578;SDS011;21687;48.900;9.188;2023-12-20T05:21:44;1.67;;;1.57;;
35578;SDS011;21687;48.900;9.188;2023-12-20T05:24:11;1.70;;;1.60;;
35578;SDS011;21687;48.900;9.188;2023-12-20T05:26:37;2.33;;;1.90;;
35578;SDS011;21687;48.900;9.188;2023-12-20T05:29:03;2.57;;;2.37;;
35578;SDS011;21687;48.900;9.188;2023-12-20T05:31:31;2.27;;;2.17;;
35578;SDS011;21687;48.900;9.188;2023-12-20T05:33:57;2.60;;;2.40;;
35578;SDS011;21687;48.900;9.188;2023-12-20T05:36:24;3.07;;;2.77;;
35578;SDS011;21687;48.900;9.188;2023-12-20T05:38:50;2.90;;;2.70;;
35578;SDS011;21687;48.900;9.188;2023-12-20T05:41:16;2.93;;;2.73;;
35578;SDS011;21687;48.900;9.188;2023-12-20T05:43:43;3.37;;;3.10;;
35578;SDS011;21687;48.900;9.188;2023-12-20T05:46:12;3.63;;;3.33;;
35578;SDS011;21687;48.900;9.188;2023-12-20T05:48:38;3.70;;;3.40;;
35578;SDS011;21687;48.900;9.188;2023-12-20T05:51:04;3.60;;;3.40;;
35578;SDS011;21687;48.900;9.188;2023-12-20T05:53:31;4.17;;;3.77;;
35578;SDS011;21687;48.900;9.188;2023-12-20T05:55:57;4.47;;;3.83;;
35578;SDS011;21687;48.900;9.188;2023-12-20T05:58:23;3.87;;;3.50;;
35578;SDS011;21687;48.900;9.188;2023-12-20T06:00:50;4.03;;;3.43;;
35578;SDS011;21687;48.900;9.188;2023-12-20T06:03:16;4.40;;;3.77;;
35578;SDS011;21687;48.900;9.188;2023-12-20T06:05:42;4.43;;;3.87;;
35578;SDS011;21687;48.900;9.188;2023-12-20T06:08:08;3.73;;;3.40;;
35578;SDS011;21687;48.900;9.188;2023-12-20T06:10:35;4.00;;;3.70;;
35578;SDS011;21687;48.900;9.188;2023-12-20T06:13:01;3.97;;;3.67;;
35578;SDS011;21687;48.900;9.188;2023-12-20T06:15:32;3.90;;;3.60;;
35578;SDS011;21687;48.900;9.188;2023-12-20T06:17:58;4.07;;;3.30;;
35578;SDS011;21687;48.900;9.188;2023-12-20T06:20:26;4.30;;;3.83;;
35578;SDS011;21687;48.900;9.188;2023-12-20T06:22:52;3.47;;;3.17;;
35578;SDS011;21687;48.900;9.188;2023-12-20T06:25:18;4.77;;;4.03;;
35578;SDS011;21687;48.900;9.188;2023-12-20T06:27:45;4.00;;;3.70;;
35578;SDS011;21687;48.900;9.188;2023-12-20T06:30:11;4.97;;;4.07;;
35578;SDS011;21687;48.900;9.188;2023-12-20T06:32:38;4.10;;;3.80;;
35578;SDS011;21687;48.900;9.188;2023-12-20T06:35:04;4.20;;;3.90;;
35578;SDS011;21687;48.900;9.188;2023-12-20T06:37:31;4.67;;;4.27;;
35578;SDS011;21687;48.900;9.188;2023-12-20T06:39:57;4.70;;;4.30;;
35578;SDS011;21687;48.900;9.188;2023-12-20T06:42:24;5.00;;;4.60;;
35578;SDS011;21687;48.900;9.188;2023-12-20T06:44:50;5.90;;;5.27;;
35578;SDS011;21687;48.900;9.188;2023-12-20T06:47:16;6.03;;;5.47;;
35578;SDS011;21687;48.900;9.188;2023-12-20T06:49:42;5.83;;;5.33;;
35578;SDS011;21687;48.900;9.188;2023-12-20T06:52:09;6.83;;;5.70;;
35578;SDS011;21687;48.900;9.188;2023-12-20T06:54:35;6.80;;;5.87;;
35578;SDS011;21687;48.900;9.188;2023-12-20T06:57:01;6.43;;;5.83;;
35578;SDS011;21687;48.900;9.188;2023-12-20T06:59:29;6.23;;;5.73;;
35578;SDS011;21687;48.900;9.188;2023-12-20T07:01:55;6.90;;;6.30;;
35578;SDS011;21687;48.900;9.188;2023-12-20T07:04:21;6.40;;;5.80;;
35578;SDS011;21687;48.900;9.188;2023-12-20T07:06:48;6.80;;;6.20;;
35578;SDS011;21687;48.900;9.188;2023-12-20T07:09:21;7.30;;;6.60;;
35578;SDS011;21687;48.900;9.188;2023-12-20T07:11:48;7.07;;;6.43;;
35578;SDS011;21687;48.900;9.188;2023-12-20T07:14:14;7.67;;;6.97;;
35578;SDS011;21687;48.900;9.188;2023-12-20T07:16:41;8.13;;;7.43;;
35578;SDS011;21687;48.900;9.188;2023-12-20T07:19:07;8.27;;;7.57;;
35578;SDS011;21687;48.900;9.188;2023-12-20T07:21:33;7.50;;;6.90;;
35578;SDS011;21687;48.900;9.188;2023-12-20T07:24:00;8.10;;;7.30;;
35578;SDS011;21687;48.900;9.188;2023-12-20T07:26:26;7.57;;;6.87;;
35578;SDS011;21687;48.900;9.188;2023-12-20T07:28:53;14.57;;;8.73;;
35578;SDS011;21687;48.900;9.188;2023-12-20T07:31:19;9.20;;;8.00;;
35578;SDS011;21687;48.900;9.188;2023-12-20T07:33:45;8.97;;;8.03;;
35578;SDS011;21687;48.900;9.188;2023-12-20T07:36:12;9.60;;;7.90;;
35578;SDS011;21687;48.900;9.188;2023-12-20T07:38:38;7.87;;;7.07;;
35578;SDS011;21687;48.900;9.188;2023-12-20T07:41:04;8.67;;;7.77;;
35578;SDS011;21687;48.900;9.188;2023-12-20T07:43:31;7.47;;;6.77;;
35578;SDS011;21687;48.900;9.188;2023-12-20T07:45:57;7.63;;;6.93;;
35578;SDS011;21687;48.900;9.188;2023-12-20T07:48:28;7.10;;;6.40;;
35578;SDS011;21687;48.900;9.188;2023-12-20T07:50:54;7.10;;;6.50;;
35578;SDS011;21687;48.900;9.188;2023-12-20T07:53:21;7.40;;;6.17;;
35578;SDS011;21687;48.900;9.188;2023-12-20T07:55:47;6.97;;;6.27;;
35578;SDS011;21687;48.900;9.188;2023-12-20T07:58:13;6.63;;;6.03;;
35578;SDS011;21687;48.900;9.188;2023-12-20T08:00:40;8.17;;;6.10;;
35578;SDS011;21687;48.900;9.188;2023-12-20T08:03:06;7.30;;;6.60;;
35578;SDS011;21687;48.900;9.188;2023-12-20T08:05:32;6.87;;;6.27;;
35578;SDS011;21687;48.900;9.188;2023-12-20T08:07:58;6.87;;;5.80;;
35578;SDS011;21687;48.900;9.188;2023-12-20T08:10:25;6.63;;;5.77;;
35578;SDS011;21687;48.900;9.188;2023-12-20T08:12:54;6.23;;;5.67;;
35578;SDS011;21687;48.900;9.188;2023-12-20T08:15:21;6.70;;;6.10;;
35578;SDS011;21687;48.900;9.188;2023-12-20T08:17:47;6.60;;;5.90;;
35578;SDS011;21687;48.900;9.188;2023-12-20T08:20:16;10.80;;;6.30;;
35578;SDS011;21687;48.900;9.188;2023-12-20T08:22:42;6.67;;;5.97;;
35578;SDS011;21687;48.900;9.188;2023-12-20T08:25:08;6.73;;;6.13;;
35578;SDS011;21687;48.900;9.188;2023-12-20T08:27:41;5.77;;;5.17;;
35578;SDS011;21687;48.900;9.188;2023-12-20T08:30:10;6.97;;;5.00;;
35578;SDS011;21687;48.900;9.188;2023-12-20T08:32:36;7.60;;;5.53;;
35578;SDS011;21687;48.900;9.188;2023-12-20T08:35:03;6.40;;;5.80;;
35578;SDS011;21687;48.900;9.188;2023-12-20T08:37:29;6.90;;;5.50;;
35578;SDS011;21687;48.900;9.188;2023-12-20T08:39:56;6.17;;;5.57;;
35578;SDS011;21687;48.900;9.188;2023-12-20T08:42:23;5.77;;;5.07;;
35578;SDS011;21687;48.900;9.188;2023-12-20T08:44:50;6.27;;;5.57;;
35578;SDS011;21687;48.900;9.188;2023-12-20T08:47:17;6.33;;;5.33;;
35578;SDS011;21687;48.900;9.188;2023-12-20T08:49:44;7.13;;;6.37;;
35578;SDS011;21687;48.900;9.188;2023-12-20T08:52:11;9.20;;;5.40;;
35578;SDS011;21687;48.900;9.188;2023-12-20T08:54:37;5.20;;;4.63;;
35578;SDS011;21687;48.900;9.188;2023-12-20T08:57:04;6.30;;;5.70;;
35578;SDS011;21687;48.900;9.188;2023-12-20T08:59:32;6.10;;;5.50;;
35578;SDS011;21687;48.900;9.188;2023-12-20T09:01:59;6.30;;;5.40;;
35578;SDS011;21687;48.900;9.188;2023-12-20T09:04:25;6.13;;;5.53;;
35578;SDS011;21687;48.900;9.188;2023-12-20T09:06:52;6.50;;;5.90;;
35578;SDS011;21687;48.900;9.188;2023-12-20T09:09:18;5.73;;;5.23;;
35578;SDS011;21687;48.900;9.188;2023-12-20T09:11:45;7.50;;;5.90;;
35578;SDS011;21687;48.900;9.188;2023-12-20T09:14:13;7.00;;;5.93;;
35578;SDS011;21687;48.900;9.188;2023-12-20T09:16:39;7.47;;;5.57;;
35578;SDS011;21687;48.900;9.188;2023-12-20T09:19:06;6.60;;;5.50;;
35578;SDS011;21687;48.900;9.188;2023-12-20T09:21:32;5.77;;;5.17;;
35578;SDS011;21687;48.900;9.188;2023-12-20T09:23:58;8.03;;;5.10;;
35578;SDS011;21687;48.900;9.188;2023-12-20T09:26:25;6.80;;;5.07;;
35578;SDS011;21687;48.900;9.188;2023-12-20T09:28:51;5.77;;;5.17;;
35578;SDS011;21687;48.900;9.188;2023-12-20T09:31:17;6.40;;;5.43;;
35578;SDS011;21687;48.900;9.188;2023-12-20T09:33:44;5.27;;;4.73;;
35578;SDS011;21687;48.900;9.188;2023-12-20T09:36:10;4.63;;;3.80;;
35578;SDS011;21687;48.900;9.188;2023-12-20T09:38:36;5.50;;;4.13;;
35578;SDS011;21687;48.900;9.188;2023-12-20T09:41:03;7.43;;;3.83;;
35578;SDS011;21687;48.900;9.188;2023-12-20T09:43:30;10.30;;;3.30;;
35578;SDS011;21687;48.900;9.188;2023-12-20T09:46:00;6.03;;;2.80;;
35578;SDS011;21687;48.900;9.188;2023-12-20T09:48:30;12.77;;;3.10;;
35578;SDS011;21687;48.900;9.188;2023-12-20T09:50:57;6.50;;;3.27;;
35578;SDS011;21687;48.900;9.188;2023-12-20T09:53:24;10.13;;;2.70;;
35578;SDS011;21687;48.900;9.188;2023-12-20T09:55:58;5.47;;;2.60;;
35578;SDS011;21687;48.900;9.188;2023-12-20T10:01:19;4.40;;;1.70;;
35578;SDS011;21687;48.900;9.188;2023-12-20T10:03:47;8.00;;;3.00;;
35578;SDS011;21687;48.900;9.188;2023-12-20T10:06:15;10.07;;;2.10;;
35578;SDS011;21687;48.900;9.188;2023-12-20T10:08:42;6.17;;;2.33;;
35578;SDS011;21687;48.900;9.188;2023-12-20T10:11:08;9.33;;;2.23;;
35578;SDS011;21687;48.900;9.188;2023-12-20T10:13:39;6.87;;;2.47;;
35578;SDS011;21687;48.900;9.188;2023-12-20T10:16:06;9.00;;;2.43;;
35578;SDS011;21687;48.900;9.188;2023-12-20T10:18:32;3.93;;;2.33;;
35578;SDS011;21687;48.900;9.188;2023-12-20T10:21:00;5.70;;;2.40;;
35578;SDS011;21687;48.900;9.188;2023-12-20T10:23:26;7.73;;;2.17;;
35578;SDS011;21687;48.900;9.188;2023-12-20T10:25:56;5.40;;;2.50;;
35578;SDS011;21687;48.900;9.188;2023-12-20T10:28:23;7.67;;;2.00;;
35578;SDS011;21687;48.900;9.188;2023-12-20T10:30:53;5.67;;;2.73;;
35578;SDS011;21687;48.900;9.188;2023-12-20T10:33:24;3.97;;;1.80;;
35578;SDS011;21687;48.900;9.188;2023-12-20T10:35:52;7.90;;;2.30;;
35578;SDS011;21687;48.900;9.188;2023-12-20T10:38:19;6.40;;;2.57;;
35578;SDS011;21687;48.900;9.188;2023-12-20T10:40:46;6.93;;;2.33;;
35578;SDS011;21687;48.900;9.188;2023-12-20T10:43:12;6.07;;;2.13;;
35578;SDS011;21687;48.900;9.188;2023-12-20T10:45:40;7.33;;;2.23;;
35578;SDS011;21687;48.900;9.188;2023-12-20T10:48:09;3.20;;;1.90;;
35578;SDS011;21687;48.900;9.188;2023-12-20T10:50:39;4.90;;;1.90;;
35578;SDS011;21687;48.900;9.188;2023-12-20T10:53:07;5.20;;;2.03;;
35578;SDS011;21687;48.900;9.188;2023-12-20T10:55:33;7.23;;;2.33;;
35578;SDS011;21687;48.900;9.188;2023-12-20T10:58:00;4.10;;;1.83;;
35578;SDS011;21687;48.900;9.188;2023-12-20T11:00:31;3.83;;;1.87;;
35578;SDS011;21687;48.900;9.188;2023-12-20T11:03:01;4.37;;;1.90;;
35578;SDS011;21687;48.900;9.188;2023-12-20T11:08:12;3.37;;;1.60;;
35578;SDS011;21687;48.900;9.188;2023-12-20T11:13:23;4.37;;;1.70;;
35578;SDS011;21687;48.900;9.188;2023-12-20T11:15:56;5.20;;;1.80;;
35578;SDS011;21687;48.900;9.188;2023-12-20T11:18:28;5.60;;;1.80;;
35578;SDS011;21687;48.900;9.188;2023-12-20T11:20:55;7.60;;;1.73;;
35578;SDS011;21687;48.900;9.188;2023-12-20T11:23:25;5.50;;;1.77;;
35578;SDS011;21687;48.900;9.188;2023-12-20T11:25:52;7.40;;;1.90;;
35578;SDS011;21687;48.900;9.188;2023-12-20T11:28:23;5.73;;;1.90;;
35578;SDS011;21687;48.900;9.188;2023-12-20T11:30:54;5.87;;;1.93;;
35578;SDS011;21687;48.900;9.188;2023-12-20T11:33:23;6.07;;;2.07;;
35578;SDS011;21687;48.900;9.188;2023-12-20T11:36:14;5.27;;;2.03;;
35578;SDS011;21687;48.900;9.188;2023-12-20T11:38:56;7.67;;;2.20;;
35578;SDS011;21687;48.900;9.188;2023-12-20T11:41:24;8.53;;;2.50;;
35578;SDS011;21687;48.900;9.188;2023-12-20T11:43:55;9.77;;;2.00;;
35578;SDS011;21687;48.900;9.188;2023-12-20T11:46:22;7.80;;;2.60;;
35578;SDS011;21687;48.900;9.188;2023-12-20T11:48:48;4.70;;;2.10;;
35578;SDS011;21687;48.900;9.188;2023-12-20T11:51:15;6.17;;;2.17;;
35578;SDS011;21687;48.900;9.188;2023-12-20T11:53:41;5.23;;;2.07;;
35578;SDS011;21687;48.900;9.188;2023-12-20T11:56:08;4.73;;;2.10;;
35578;SDS011;21687;48.900;9.188;2023-12-20T11:58:35;7.37;;;2.30;;
35578;SDS011;21687;48.900;9.188;2023-12-20T12:01:02;7.83;;;2.23;;
35578;SDS011;21687;48.900;9.188;2023-12-20T12:03:30;9.70;;;2.70;;
35578;SDS011;21687;48.900;9.188;2023-12-20T12:05:56;8.93;;;2.50;;
35578;SDS011;21687;48.900;9.188;2023-12-20T12:08:23;7.37;;;2.80;;
35578;SDS011;21687;48.900;9.188;2023-12-20T12:21:19;6.67;;;2.30;;
35578;SDS011;21687;48.900;9.188;2023-12-20T12:23:46;9.97;;;2.67;;
35578;SDS011;21687;48.900;9.188;2023-12-20T12:26:12;6.70;;;2.20;;
35578;SDS011;21687;48.900;9.188;2023-12-20T12:28:42;7.37;;;2.20;;
35578;SDS011;21687;48.900;9.188;2023-12-20T12:31:14;5.20;;;2.07;;
35578;SDS011;21687;48.900;9.188;2023-12-20T12:33:42;8.37;;;2.13;;
35578;SDS011;21687;48.900;9.188;2023-12-20T12:36:09;5.73;;;2.20;;
35578;SDS011;21687;48.900;9.188;2023-12-20T12:38:37;6.27;;;2.23;;
35578;SDS011;21687;48.900;9.188;2023-12-20T12:41:04;4.23;;;1.83;;
35578;SDS011;21687;48.900;9.188;2023-12-20T12:43:32;3.87;;;1.90;;
35578;SDS011;21687;48.900;9.188;2023-12-20T12:45:58;4.37;;;1.87;;
35578;SDS011;21687;48.900;9.188;2023-12-20T12:48:24;5.03;;;2.10;;
35578;SDS011;21687;48.900;9.188;2023-12-20T12:50:52;8.27;;;2.30;;
35578;SDS011;21687;48.900;9.188;2023-12-20T12:53:19;5.83;;;2.57;;
35578;SDS011;21687;48.900;9.188;2023-12-20T12:55:45;5.77;;;2.33;;
35578;SDS011;21687;48.900;9.188;2023-12-20T12:58:12;5.97;;;2.00;;
35578;SDS011;21687;48.900;9.188;2023-12-20T13:00:38;10.00;;;2.20;;
35578;SDS011;21687;48.900;9.188;2023-12-20T13:03:07;7.33;;;2.60;;
35578;SDS011;21687;48.900;9.188;2023-12-20T13:05:33;5.03;;;1.90;;
35578;SDS011;21687;48.900;9.188;2023-12-20T13:08:00;8.67;;;2.70;;
35578;SDS011;21687;48.900;9.188;2023-12-20T13:10:26;6.90;;;2.10;;
35578;SDS011;21687;48.900;9.188;2023-12-20T13:12:52;3.47;;;1.77;;
35578;SDS011;21687;48.900;9.188;2023-12-20T13:15:19;4.73;;;1.83;;
35578;SDS011;21687;48.900;9.188;2023-12-20T13:17:45;6.20;;;1.90;;
35578;SDS011;21687;48.900;9.188;2023-12-20T13:20:12;4.87;;;1.73;;
35578;SDS011;21687;48.900;9.188;2023-12-20T13:22:38;7.00;;;2.13;;
35578;SDS011;21687;48.900;9.188;2023-12-20T13:25:04;3.87;;;1.73;;
35578;SDS011;21687;48.900;9.188;2023-12-20T13:27:31;2.80;;;1.80;;
35578;SDS011;21687;48.900;9.188;2023-12-20T13:29:58;9.30;;;2.13;;
35578;SDS011;21687;48.900;9.188;2023-12-20T13:32:24;4.67;;;2.00;;
35578;SDS011;21687;48.900;9.188;2023-12-20T13:34:51;5.07;;;1.83;;
35578;SDS011;21687;48.900;9.188;2023-12-20T13:37:17;5.13;;;2.33;;
35578;SDS011;21687;48.900;9.188;2023-12-20T13:39:43;6.83;;;2.27;;
35578;SDS011;21687;48.900;9.188;2023-12-20T13:42:10;6.50;;;1.90;;
35578;SDS011;21687;48.900;9.188;2023-12-20T13:44:36;5.57;;;2.90;;
35578;SDS011;21687;48.900;9.188;2023-12-20T13:47:02;4.80;;;1.90;;
35578;SDS011;21687;48.900;9.188;2023-12-20T13:49:29;7.00;;;2.47;;
35578;SDS011;21687;48.900;9.188;2023-12-20T13:51:55;5.03;;;1.93;;
35578;SDS011;21687;48.900;9.188;2023-12-20T13:54:22;8.03;;;2.13;;
35578;SDS011;21687;48.900;9.188;2023-12-20T13:56:49;9.67;;;2.30;;
35578;SDS011;21687;48.900;9.188;2023-12-20T13:59:16;7.37;;;2.37;;
35578;SDS011;21687;48.900;9.188;2023-12-20T14:01:42;8.00;;;2.47;;
35578;SDS011;21687;48.900;9.188;2023-12-20T14:04:08;5.37;;;2.30;;
35578;SDS011;21687;48.900;9.188;2023-12-20T14:06:36;5.33;;;2.27;;
35578;SDS011;21687;48.900;9.188;2023-12-20T14:09:02;7.37;;;2.60;;
35578;SDS011;21687;48.900;9.188;2023-12-20T14:11:29;6.93;;;2.83;;
35578;SDS011;21687;48.900;9.188;2023-12-20T14:13:55;7.87;;;2.63;;
35578;SDS011;21687;48.900;9.188;2023-12-20T14:16:23;8.43;;;2.43;;
35578;SDS011;21687;48.900;9.188;2023-12-20T14:18:50;6.27;;;2.03;;
35578;SDS011;21687;48.900;9.188;2023-12-20T14:21:22;7.43;;;2.33;;
35578;SDS011;21687;48.900;9.188;2023-12-20T14:23:49;9.57;;;2.37;;
35578;SDS011;21687;48.900;9.188;2023-12-20T14:26:17;7.10;;;2.40;;
35578;SDS011;21687;48.900;9.188;2023-12-20T14:28:43;6.97;;;2.60;;
35578;SDS011;21687;48.900;9.188;2023-12-20T14:31:09;10.67;;;2.57;;
35578;SDS011;21687;48.900;9.188;2023-12-20T14:33:35;9.97;;;2.67;;
35578;SDS011;21687;48.900;9.188;2023-12-20T14:36:04;5.77;;;2.70;;
35578;SDS011;21687;48.900;9.188;2023-12-20T14:38:31;6.67;;;2.60;;
35578;SDS011;21687;48.900;9.188;2023-12-20T14:40:57;7.77;;;2.43;;
35578;SDS011;21687;48.900;9.188;2023-12-20T14:43:24;8.60;;;2.50;;
35578;SDS011;21687;48.900;9.188;2023-12-20T14:45:51;10.03;;;3.30;;
35578;SDS011;21687;48.900;9.188;2023-12-20T14:48:19;9.30;;;2.83;;
35578;SDS011;21687;48.900;9.188;2023-12-20T14:50:46;5.73;;;2.87;;
35578;SDS011;21687;48.900;9.188;2023-12-20T14:53:14;7.37;;;2.87;;
35578;SDS011;21687;48.900;9.188;2023-12-20T14:55:42;9.17;;;2.87;;
35578;SDS011;21687;48.900;9.188;2023-12-20T14:58:08;8.40;;;2.90;;
35578;SDS011;21687;48.900;9.188;2023-12-20T15:00:35;8.20;;;2.83;;
35578;SDS011;21687;48.900;9.188;2023-12-20T15:03:02;8.13;;;2.70;;
35578;SDS011;21687;48.900;9.188;2023-12-20T15:05:30;11.00;;;3.33;;